createdAt,value
2023-01-01T00:00:50.230Z,30.97
2023-01-01T00:03:18.115Z,28.33
2023-01-01T00:05:45.634Z,43.70
2023-01-01T00:08:13.179Z,69.00
2023-01-01T00:10:40.765Z,45.87
2023-01-01T00:13:08.419Z,36.27
2023-01-01T00:15:35.909Z,26.17
2023-01-01T00:18:03.505Z,24.57
2023-01-01T00:20:35.253Z,30.90
2023-01-01T00:23:03.358Z,27.57
2023-01-01T00:25:32.649Z,23.37
2023-01-01T00:28:00.685Z,21.77
2023-01-01T00:30:28.273Z,22.80
2023-01-01T00:32:56.562Z,22.33
2023-01-01T00:35:26.469Z,21.27
2023-01-01T00:37:55.496Z,20.13
2023-01-01T00:40:23.344Z,17.47
2023-01-01T00:42:51.611Z,17.83
2023-01-01T00:45:22.550Z,20.87
2023-01-01T00:47:54.656Z,23.30
2023-01-01T00:50:23.795Z,28.03
2023-01-01T00:52:51.578Z,35.17
2023-01-01T00:55:19.350Z,49.43
2023-01-01T00:57:46.847Z,31.87
2023-01-01T01:00:15.410Z,24.47
2023-01-01T01:02:43.080Z,26.73
2023-01-01T01:05:11.281Z,26.93
2023-01-01T01:07:41.470Z,27.30
2023-01-01T01:10:10.221Z,31.03
2023-01-01T01:12:38.361Z,30.53
2023-01-01T01:15:07.071Z,40.80
2023-01-01T01:17:35.172Z,38.07
2023-01-01T01:20:03.513Z,36.07
2023-01-01T01:22:31.172Z,28.63
2023-01-01T01:24:58.659Z,27.60
2023-01-01T01:27:26.571Z,26.40
2023-01-01T01:29:54.939Z,28.77
2023-01-01T01:32:22.407Z,28.93
2023-01-01T01:34:50.266Z,28.73
2023-01-01T01:37:17.748Z,29.50
2023-01-01T01:39:47.884Z,30.80
2023-01-01T01:42:19.697Z,31.13
2023-01-01T01:44:47.589Z,31.33
2023-01-01T01:47:54.374Z,30.53
2023-01-01T01:50:39.847Z,27.33
2023-01-01T01:53:20.109Z,25.40
2023-01-01T01:55:55.470Z,28.67
2023-01-01T01:58:23.476Z,32.97
2023-01-01T02:00:51.602Z,31.33
2023-01-01T02:03:57.863Z,30.77
2023-01-01T02:06:29.768Z,43.13
2023-01-01T02:09:01.070Z,37.97
2023-01-01T02:11:28.743Z,47.53
2023-01-01T02:13:58.242Z,49.63
2023-01-01T02:16:47.631Z,51.57
2023-01-01T02:19:30.727Z,36.40
2023-01-01T02:22:18.460Z,38.27
2023-01-01T02:25:43.011Z,85.20
2023-01-01T02:28:43.486Z,54.37
2023-01-01T02:31:22.789Z,51.63
2023-01-01T02:33:55.567Z,46.40
2023-01-01T02:36:26.036Z,40.97
2023-01-01T02:38:58.078Z,39.30
2023-01-01T02:41:36.489Z,35.07
2023-01-01T02:46:36.074Z,33.57
2023-01-01T02:49:09.824Z,33.07
2023-01-01T02:52:13.494Z,32.87
2023-01-01T02:55:06.310Z,31.33
2023-01-01T02:57:49.020Z,35.53
2023-01-01T03:00:31.374Z,37.83
2023-01-01T03:03:29.033Z,28.50
2023-01-01T03:06:23.724Z,30.30
2023-01-01T03:08:59.664Z,29.73
2023-01-01T03:11:39.805Z,30.27
2023-01-01T03:14:38.584Z,29.47
2023-01-01T03:17:36.266Z,30.10
2023-01-01T03:20:12.078Z,30.60
2023-01-01T03:25:25.995Z,43.07
2023-01-01T03:28:02.806Z,43.97
2023-01-01T03:30:33.002Z,46.93
2023-01-01T03:33:09.763Z,55.97
2023-01-01T03:35:41.847Z,57.90
2023-01-01T03:38:24.848Z,45.50
2023-01-01T03:41:01.877Z,46.93
2023-01-01T03:43:53.005Z,47.73
2023-01-01T03:46:27.108Z,48.93
2023-01-01T03:49:03.352Z,43.70
2023-01-01T03:52:05.609Z,32.53
2023-01-01T03:54:58.875Z,40.37
2023-01-01T03:58:02.595Z,37.47
2023-01-01T04:00:37.879Z,25.17
2023-01-01T04:03:26.693Z,27.70
2023-01-01T04:05:54.367Z,25.47
2023-01-01T04:08:22.088Z,23.73
2023-01-01T04:10:58.076Z,26.50
2023-01-01T04:13:25.572Z,29.20
2023-01-01T04:15:53.159Z,47.07
2023-01-01T04:18:20.701Z,40.23
2023-01-01T04:20:48.146Z,27.33
2023-01-01T04:23:15.579Z,21.70
2023-01-01T04:25:43.138Z,21.73
2023-01-01T04:28:10.611Z,22.70
2023-01-01T04:33:04.545Z,22.53
2023-01-01T04:35:32.434Z,23.17
2023-01-01T04:38:00.641Z,24.50
2023-01-01T04:40:28.184Z,28.80
2023-01-01T04:42:55.766Z,33.80
2023-01-01T04:45:23.418Z,29.43
2023-01-01T04:47:50.929Z,27.80
2023-01-01T04:50:18.433Z,22.77
2023-01-01T04:52:46.196Z,21.33
2023-01-01T04:55:13.797Z,20.30
2023-01-01T04:57:42.580Z,20.07
2023-01-01T05:00:10.530Z,20.27
2023-01-01T05:02:38.143Z,20.50
2023-01-01T05:05:06.119Z,20.43
2023-01-01T05:07:34.427Z,20.23
2023-01-01T05:10:01.909Z,18.43
2023-01-01T05:12:30.952Z,22.80
2023-01-01T05:14:58.428Z,19.80
2023-01-01T05:17:25.887Z,20.70
2023-01-01T05:19:53.395Z,23.13
2023-01-01T05:22:20.925Z,23.20
2023-01-01T05:24:48.427Z,26.40
2023-01-01T05:27:15.892Z,32.33
2023-01-01T05:29:43.359Z,30.60
2023-01-01T05:37:03.405Z,29.07
2023-01-01T05:39:30.920Z,29.57
2023-01-01T05:41:58.462Z,29.87
2023-01-01T05:44:26.144Z,27.60
2023-01-01T05:46:53.576Z,29.03
2023-01-01T05:49:21.210Z,27.57
2023-01-01T05:51:48.690Z,27.77
2023-01-01T05:56:42.519Z,28.77
2023-01-01T05:59:11.584Z,28.13
2023-01-01T06:01:45.383Z,30.77
2023-01-01T06:04:13.954Z,38.70
2023-01-01T06:06:41.707Z,53.50
2023-01-01T06:09:11.859Z,52.80
2023-01-01T06:11:40.815Z,50.33
2023-01-01T06:14:08.289Z,44.97
2023-01-01T06:16:36.125Z,52.13
2023-01-01T06:19:03.738Z,46.47
2023-01-01T06:21:31.183Z,38.23
2023-01-01T06:24:00.926Z,35.10
2023-01-01T06:26:32.057Z,32.60
2023-01-01T06:29:03.026Z,31.30
2023-01-01T06:31:36.795Z,32.27
2023-01-01T06:34:10.188Z,38.67
2023-01-01T06:36:37.934Z,38.03
2023-01-01T06:39:08.017Z,38.63
2023-01-01T06:41:35.764Z,40.73
2023-01-01T06:44:04.148Z,42.70
2023-01-01T06:46:37.720Z,38.23
2023-01-01T06:49:10.129Z,44.47
2023-01-01T06:51:42.372Z,45.03
2023-01-01T06:54:11.938Z,49.80
2023-01-01T06:56:39.874Z,46.53
2023-01-01T06:59:07.883Z,49.27
2023-01-01T07:01:43.863Z,49.40
2023-01-01T07:04:15.867Z,50.53
2023-01-01T07:06:43.774Z,49.20
2023-01-01T07:09:11.281Z,50.70
2023-01-01T07:11:38.869Z,55.53
2023-01-01T07:14:06.379Z,54.77
2023-01-01T07:16:34.083Z,55.20
2023-01-01T07:19:01.654Z,51.30
2023-01-01T07:21:32.996Z,60.30
2023-01-01T07:24:05.740Z,52.90
2023-01-01T07:26:34.744Z,49.67
2023-01-01T07:29:07.371Z,35.23
2023-01-01T07:31:38.510Z,30.23
2023-01-01T07:34:07.784Z,26.10
2023-01-01T07:36:35.453Z,24.33
2023-01-01T07:39:03.190Z,25.17
2023-01-01T07:41:31.186Z,28.73
2023-01-01T07:43:59.802Z,29.40
2023-01-01T07:46:27.846Z,30.80
2023-01-01T07:48:55.407Z,33.00
2023-01-01T07:51:23.215Z,35.33
2023-01-01T07:53:52.090Z,48.10
2023-01-01T07:56:19.612Z,50.23
2023-01-01T07:58:47.135Z,37.53
2023-01-01T08:01:15.533Z,36.63
2023-01-01T08:03:43.401Z,34.47
2023-01-01T08:06:14.679Z,38.43
2023-01-01T08:08:42.383Z,39.17
2023-01-01T08:11:10.245Z,43.40
2023-01-01T08:13:37.872Z,50.53
2023-01-01T08:16:08.635Z,63.70
2023-01-01T08:18:36.438Z,62.47
2023-01-01T08:21:05.255Z,54.77
2023-01-01T08:23:32.789Z,55.13
2023-01-01T08:26:02.141Z,52.13
2023-01-01T08:28:31.143Z,36.60
2023-01-01T08:31:00.320Z,26.33
2023-01-01T08:33:30.018Z,26.10
2023-01-01T08:35:58.358Z,28.53
2023-01-01T08:38:26.200Z,28.87
2023-01-01T08:40:54.100Z,30.83
2023-01-01T08:43:21.567Z,28.13
2023-01-01T08:45:50.594Z,25.80
2023-01-01T08:48:18.667Z,27.27
2023-01-01T08:50:52.189Z,26.67
2023-01-01T08:53:19.758Z,30.20
2023-01-01T08:56:00.539Z,25.17
2023-01-01T08:58:32.046Z,26.27
2023-01-01T09:01:00.317Z,24.87
2023-01-01T09:03:29.106Z,29.47
2023-01-01T09:05:57.879Z,27.67
2023-01-01T09:08:26.022Z,24.17
2023-01-01T09:10:58.099Z,21.37
2023-01-01T09:13:27.333Z,20.57
2023-01-01T09:15:55.492Z,18.37
2023-01-01T09:18:23.226Z,16.87
2023-01-01T09:20:50.957Z,19.77
2023-01-01T09:23:18.474Z,16.37
2023-01-01T09:25:47.741Z,14.87
2023-01-01T09:28:18.170Z,14.77
2023-01-01T09:30:49.335Z,13.30
2023-01-01T09:33:17.174Z,14.80
2023-01-01T09:35:44.780Z,12.50
2023-01-01T09:38:12.819Z,12.33
2023-01-01T09:41:22.797Z,14.97
2023-01-01T09:44:22.985Z,19.73
2023-01-01T09:46:53.353Z,17.90
2023-01-01T09:49:40.419Z,15.83
2023-01-01T09:52:16.137Z,14.37
2023-01-01T09:55:04.301Z,11.90
2023-01-01T09:57:33.463Z,11.20
2023-01-01T10:00:04.175Z,10.70
2023-01-01T10:02:53.547Z,11.63
2023-01-01T10:05:58.955Z,13.70
2023-01-01T10:09:01.103Z,12.00
2023-01-01T10:11:42.670Z,63.60
2023-01-01T10:14:36.297Z,17.07
2023-01-01T10:17:18.238Z,16.87
2023-01-01T10:19:52.517Z,12.50
2023-01-01T10:22:33.444Z,11.03
2023-01-01T10:25:21.896Z,12.17
2023-01-01T10:28:14.900Z,11.20
2023-01-01T10:30:42.803Z,12.70
2023-01-01T10:33:15.246Z,14.03
2023-01-01T10:35:56.979Z,11.23
2023-01-01T10:38:29.259Z,12.67
2023-01-01T10:41:13.623Z,11.57
2023-01-01T10:43:51.034Z,11.87
2023-01-01T10:46:31.296Z,11.97
2023-01-01T10:49:11.160Z,10.67
2023-01-01T10:52:06.979Z,10.10
2023-01-01T10:54:38.930Z,9.57
2023-01-01T10:57:28.100Z,10.47
2023-01-01T11:00:32.252Z,9.27
2023-01-01T11:03:23.890Z,9.27
2023-01-01T11:06:36.657Z,10.30
2023-01-01T11:09:20.657Z,8.37
2023-01-01T11:12:38.440Z,17.87
2023-01-01T11:15:01.747Z,31.87
2023-01-01T11:17:37.775Z,24.40
2023-01-01T11:20:07.633Z,35.27
2023-01-01T11:22:41.924Z,8.47
2023-01-01T11:25:25.284Z,12.47
2023-01-01T11:27:54.872Z,10.20
2023-01-01T11:30:59.875Z,9.60
2023-01-01T11:33:30.114Z,16.70
2023-01-01T11:35:59.033Z,10.03
2023-01-01T11:38:30.205Z,10.13
2023-01-01T11:41:06.270Z,29.60
2023-01-01T11:43:48.263Z,10.90
2023-01-01T11:46:46.019Z,16.43
2023-01-01T11:49:19.499Z,9.40
2023-01-01T11:51:54.409Z,15.80
2023-01-01T11:54:38.291Z,8.40
2023-01-01T11:57:18.598Z,8.20
2023-01-01T12:00:04.537Z,7.90
2023-01-01T12:02:54.982Z,8.73
2023-01-01T12:05:50.112Z,8.20
2023-01-01T12:08:34.832Z,8.37
2023-01-01T12:11:30.605Z,8.20
2023-01-01T12:14:10.459Z,7.87
2023-01-01T12:17:03.614Z,8.40
2023-01-01T12:20:03.257Z,9.47
2023-01-01T12:22:33.972Z,9.37
2023-01-01T12:25:21.833Z,10.53
2023-01-01T12:28:33.230Z,8.40
2023-01-01T12:32:04.171Z,10.13
2023-01-01T12:35:16.445Z,10.63
2023-01-01T12:38:15.503Z,9.77
2023-01-01T12:41:14.557Z,11.70
2023-01-01T12:44:09.407Z,10.33
2023-01-01T12:47:04.998Z,10.03
2023-01-01T12:50:02.368Z,13.07
2023-01-01T12:52:40.222Z,10.70
2023-01-01T12:55:24.342Z,10.25
2023-01-01T12:58:12.077Z,9.70
2023-01-01T13:00:43.739Z,9.65
2023-01-01T13:03:27.124Z,10.10
2023-01-01T13:05:57.615Z,9.15
2023-01-01T13:08:26.370Z,9.23
2023-01-01T13:10:58.808Z,8.80
2023-01-01T13:13:30.418Z,14.80
2023-01-01T13:16:07.009Z,17.35
2023-01-01T13:18:36.908Z,18.80
2023-01-01T13:21:17.886Z,10.82
2023-01-01T13:23:47.583Z,10.07
2023-01-01T13:26:25.248Z,9.88
2023-01-01T13:28:59.052Z,12.07
2023-01-01T13:31:44.990Z,14.85
2023-01-01T13:34:58.135Z,10.82
2023-01-01T13:37:52.280Z,13.35
2023-01-01T13:40:51.551Z,17.00
2023-01-01T13:43:39.034Z,11.70
2023-01-01T13:46:13.927Z,11.52
2023-01-01T13:49:23.780Z,10.88
2023-01-01T13:52:14.220Z,10.07
2023-01-01T13:55:00.255Z,10.88
2023-01-01T13:58:18.560Z,10.23
2023-01-01T14:00:58.221Z,10.75
2023-01-01T14:03:29.664Z,19.27
2023-01-01T14:06:02.726Z,11.82
2023-01-01T14:08:39.942Z,10.68
2023-01-01T14:11:24.108Z,11.07
2023-01-01T14:13:52.404Z,10.32
2023-01-01T14:16:22.653Z,11.23
2023-01-01T14:18:59.709Z,11.00
2023-01-01T14:21:33.311Z,10.93
2023-01-01T14:24:05.601Z,9.98
2023-01-01T14:26:38.527Z,10.40
2023-01-01T14:29:16.366Z,10.13
2023-01-01T14:31:46.919Z,11.35
2023-01-01T14:34:38.600Z,12.63
2023-01-01T14:37:29.879Z,13.88
2023-01-01T14:40:29.545Z,13.82
2023-01-01T14:43:11.969Z,18.52
2023-01-01T14:45:43.969Z,17.85
2023-01-01T14:48:24.319Z,34.07
2023-01-01T14:50:54.352Z,34.63
2023-01-01T14:53:35.703Z,42.20
2023-01-01T14:56:07.135Z,34.70
2023-01-01T14:58:42.473Z,32.13
2023-01-01T15:01:23.346Z,37.63
2023-01-01T15:04:06.636Z,38.83
2023-01-01T15:06:34.253Z,37.63
2023-01-01T15:09:01.906Z,43.67
2023-01-01T15:11:29.578Z,41.90
2023-01-01T15:14:04.784Z,45.83
2023-01-01T15:16:40.205Z,50.53
2023-01-01T15:19:23.638Z,57.37
2023-01-01T15:21:53.339Z,55.47
2023-01-01T15:24:25.996Z,48.60
2023-01-01T15:26:53.912Z,49.70
2023-01-01T15:29:39.626Z,54.43
2023-01-01T15:32:14.918Z,53.97
2023-01-01T15:34:54.535Z,65.00
2023-01-01T15:37:38.710Z,65.53
2023-01-01T15:40:17.740Z,65.63
2023-01-01T15:43:26.582Z,75.03
2023-01-01T15:46:16.853Z,76.47
2023-01-01T15:48:54.626Z,72.80
2023-01-01T15:51:25.607Z,73.80
2023-01-01T15:54:08.246Z,71.27
2023-01-01T15:56:42.084Z,75.37
2023-01-01T15:59:33.841Z,82.53
2023-01-01T16:02:32.313Z,95.17
2023-01-01T16:07:44.793Z,109.77
2023-01-01T16:10:18.911Z,114.80
2023-01-01T16:12:48.136Z,110.93
2023-01-01T16:15:16.681Z,108.63
2023-01-01T16:17:45.390Z,114.17
2023-01-01T16:20:19.683Z,109.20
2023-01-01T16:22:47.981Z,104.80
2023-01-01T16:25:21.999Z,102.70
2023-01-01T16:27:50.435Z,107.17
2023-01-01T16:30:19.418Z,109.10
2023-01-01T16:32:53.039Z,109.03
2023-01-01T16:35:22.754Z,122.20
2023-01-01T16:37:52.065Z,131.23
2023-01-01T16:40:19.991Z,129.70
2023-01-01T16:42:47.630Z,148.07
2023-01-01T16:45:19.290Z,133.67
2023-01-01T16:47:47.894Z,152.10
2023-01-01T16:50:17.287Z,156.83
2023-01-01T16:52:45.475Z,164.83
2023-01-01T16:55:14.662Z,174.83
2023-01-01T16:57:44.669Z,178.50
2023-01-01T17:00:13.089Z,195.10
2023-01-01T17:02:42.148Z,195.70
2023-01-01T17:05:11.583Z,185.97
2023-01-01T17:07:40.418Z,177.77
2023-01-01T17:10:08.541Z,163.60
2023-01-01T17:12:37.678Z,152.40
2023-01-01T17:15:08.231Z,146.97
2023-01-01T17:17:37.904Z,112.87
2023-01-01T17:20:07.534Z,110.13
2023-01-01T17:22:36.032Z,96.70
2023-01-01T17:25:03.874Z,82.77
2023-01-01T17:27:32.868Z,69.53
2023-01-01T17:30:01.980Z,62.80
2023-01-01T17:32:34.573Z,58.97
2023-01-01T17:35:02.880Z,62.10
2023-01-01T17:37:34.370Z,54.57
2023-01-01T17:40:06.649Z,65.83
2023-01-01T17:42:36.258Z,60.40
2023-01-01T17:45:11.699Z,54.50
2023-01-01T17:47:40.404Z,55.97
2023-01-01T17:50:11.111Z,51.10
2023-01-01T17:52:42.849Z,51.37
2023-01-01T17:55:13.602Z,53.37
2023-01-01T17:57:52.088Z,50.73
2023-01-01T18:00:21.829Z,54.13
2023-01-01T18:02:50.489Z,57.97
2023-01-01T18:05:19.879Z,63.60
2023-01-01T18:07:47.824Z,63.57
2023-01-01T18:10:15.556Z,70.53
2023-01-01T18:12:43.548Z,71.27
2023-01-01T18:15:11.817Z,70.13
2023-01-01T18:17:39.597Z,72.73
2023-01-01T18:20:08.453Z,76.10
2023-01-01T18:22:43.528Z,72.20
2023-01-01T18:25:12.597Z,69.77
2023-01-01T18:27:41.403Z,66.67
2023-01-01T18:30:09.659Z,67.90
2023-01-01T18:32:37.191Z,68.10
2023-01-01T18:35:13.462Z,74.50
2023-01-01T18:37:44.055Z,78.10
2023-01-01T18:40:19.668Z,81.70
2023-01-01T18:42:52.845Z,60.80
2023-01-01T18:45:28.766Z,66.00
2023-01-01T18:47:56.486Z,59.40
2023-01-01T18:50:29.266Z,65.93
2023-01-01T18:53:24.604Z,82.00
2023-01-01T18:56:09.534Z,58.07
2023-01-01T18:58:38.051Z,56.37
2023-01-01T19:01:53.637Z,77.63
2023-01-01T19:04:23.580Z,71.23
2023-01-01T19:06:58.414Z,66.03
2023-01-01T19:09:54.164Z,79.30
2023-01-01T19:12:28.783Z,88.60
2023-01-01T19:14:58.518Z,49.20
2023-01-01T19:17:29.013Z,73.77
2023-01-01T19:19:59.109Z,42.97
2023-01-01T19:23:02.826Z,48.27
2023-01-01T19:25:41.099Z,55.13
2023-01-01T19:28:36.027Z,59.40
2023-01-01T19:31:07.194Z,48.83
2023-01-01T19:33:35.724Z,51.47
2023-01-01T19:36:04.769Z,48.87
2023-01-01T19:38:42.888Z,49.10
2023-01-01T19:41:14.221Z,52.20
2023-01-01T19:43:41.916Z,44.90
2023-01-01T19:46:10.557Z,54.23
2023-01-01T19:48:38.192Z,129.37
2023-01-01T19:51:06.991Z,67.90
2023-01-01T19:53:34.890Z,90.53
2023-01-01T19:56:07.085Z,81.93
2023-01-01T19:58:35.629Z,70.90
2023-01-01T20:01:05.344Z,60.63
2023-01-01T20:03:54.824Z,60.50
2023-01-01T20:06:26.386Z,60.93
2023-01-01T20:08:55.023Z,60.07
2023-01-01T20:11:25.397Z,52.20
2023-01-01T20:13:55.036Z,46.87
2023-01-01T20:16:22.658Z,41.67
2023-01-01T20:18:50.198Z,40.77
2023-01-01T20:21:37.129Z,43.77
2023-01-01T20:24:05.200Z,47.43
2023-01-01T20:26:32.788Z,63.97
2023-01-01T20:29:21.325Z,37.73
2023-01-01T20:31:55.854Z,31.13
2023-01-01T20:34:24.110Z,32.53
2023-01-01T20:37:11.623Z,32.90
2023-01-01T20:39:40.237Z,32.00
2023-01-01T20:42:08.038Z,33.37
2023-01-01T20:44:39.950Z,32.77
2023-01-01T20:47:07.486Z,35.10
2023-01-01T20:49:35.808Z,37.13
2023-01-01T20:52:05.535Z,48.17
2023-01-01T20:54:33.280Z,45.37
2023-01-01T20:57:01.919Z,42.60
2023-01-01T20:59:38.563Z,48.77
2023-01-01T21:02:11.561Z,53.00
2023-01-01T21:04:40.674Z,46.87
2023-01-01T21:07:19.076Z,45.60
2023-01-01T21:09:50.935Z,47.57
2023-01-01T21:12:18.490Z,50.33
2023-01-01T21:14:46.356Z,50.03
2023-01-01T21:17:46.686Z,51.73
2023-01-01T21:20:18.280Z,50.20
2023-01-01T21:22:49.489Z,45.43
2023-01-01T21:25:50.960Z,44.03
2023-01-01T21:28:19.373Z,44.23
2023-01-01T21:30:56.045Z,39.43
2023-01-01T21:33:31.686Z,35.90
2023-01-01T21:36:13.204Z,36.33
2023-01-01T21:38:43.665Z,36.37
2023-01-01T21:41:27.604Z,34.20
2023-01-01T21:44:01.396Z,33.60
2023-01-01T21:46:39.676Z,42.50
2023-01-01T21:49:46.443Z,46.83
2023-01-01T21:52:20.864Z,47.30
2023-01-01T21:54:49.834Z,44.27
2023-01-01T21:57:24.999Z,46.57
2023-01-01T21:59:54.284Z,47.87
2023-01-01T22:02:34.398Z,49.07
2023-01-01T22:05:30.350Z,48.97
2023-01-01T22:08:26.315Z,50.67
2023-01-01T22:10:53.778Z,54.27
2023-01-01T22:13:29.633Z,62.70
2023-01-01T22:15:59.581Z,62.27
2023-01-01T22:18:31.158Z,64.67
2023-01-01T22:21:02.679Z,66.77
2023-01-01T22:23:41.581Z,70.97
2023-01-01T22:26:22.612Z,74.87
2023-01-01T22:29:14.340Z,68.43
2023-01-01T22:31:48.771Z,67.73
2023-01-01T22:34:23.425Z,65.40
2023-01-01T22:36:51.004Z,64.83
2023-01-01T22:39:36.695Z,68.30
2023-01-01T22:42:05.962Z,68.63
2023-01-01T22:44:36.987Z,64.80
2023-01-01T22:47:04.587Z,62.27
2023-01-01T22:49:42.670Z,63.50
2023-01-01T22:52:12.105Z,55.27
2023-01-01T22:54:39.997Z,49.13
2023-01-01T22:57:07.516Z,47.23
2023-01-01T22:59:35.071Z,50.10
2023-01-01T23:02:03.760Z,45.80
2023-01-01T23:04:31.274Z,40.70
2023-01-01T23:07:00.620Z,33.67
2023-01-01T23:09:28.284Z,31.93
2023-01-01T23:11:56.652Z,34.87
2023-01-01T23:14:45.437Z,36.37
2023-01-01T23:17:12.977Z,35.83
2023-01-01T23:19:40.588Z,33.00
2023-01-01T23:22:08.301Z,34.43
2023-01-01T23:24:36.402Z,33.80
2023-01-01T23:27:04.631Z,31.63
2023-01-01T23:29:34.116Z,32.43
2023-01-01T23:32:03.046Z,31.40
2023-01-01T23:34:30.689Z,30.63
2023-01-01T23:36:58.789Z,27.10
2023-01-01T23:39:26.265Z,22.57
2023-01-01T23:41:53.808Z,22.27
2023-01-01T23:44:21.275Z,16.60
2023-01-01T23:46:49.090Z,18.23
2023-01-01T23:49:17.422Z,17.50
2023-01-01T23:51:45.229Z,15.30
2023-01-01T23:54:12.766Z,13.70
2023-01-01T23:56:40.266Z,14.27
2023-01-01T23:59:07.808Z,14.87
